sensor_id;sensor_type;location;lat;lon;timestamp;P1;durP1;ratioP1;P2;durP2;ratioP2
2992;SDS011;1506;48.932;9.478;2022-08-03T00:02:13;6.27;;;2.40;;
2992;SDS011;1506;48.932;9.478;2022-08-03T00:04:40;2.80;;;2.70;;
2992;SDS011;1506;48.932;9.478;2022-08-03T00:07:07;2.90;;;2.80;;
2992;SDS011;1506;48.932;9.478;2022-08-03T00:09:35;3.23;;;3.03;;
2992;SDS011;1506;48.932;9.478;2022-08-03T00:12:02;2.83;;;2.73;;
2992;SDS011;1506;48.932;9.478;2022-08-03T00:14:29;4.00;;;3.30;;
2992;SDS011;1506;48.932;9.478;2022-08-03T00:16:57;3.57;;;3.43;;
2992;SDS011;1506;48.932;9.478;2022-08-03T00:19:24;2.87;;;2.70;;
2992;SDS011;1506;48.932;9.478;2022-08-03T00:21:51;3.20;;;3.10;;
2992;SDS011;1506;48.932;9.478;2022-08-03T00:24:18;3.07;;;2.87;;
2992;SDS011;1506;48.932;9.478;2022-08-03T00:26:45;3.17;;;3.07;;
2992;SDS011;1506;48.932;9.478;2022-08-03T00:29:12;2.77;;;2.63;;
2992;SDS011;1506;48.932;9.478;2022-08-03T00:31:39;3.30;;;3.20;;
2992;SDS011;1506;48.932;9.478;2022-08-03T00:34:18;2.60;;;2.50;;
2992;SDS011;1506;48.932;9.478;2022-08-03T00:37:02;3.43;;;3.20;;
2992;SDS011;1506;48.932;9.478;2022-08-03T00:39:29;3.40;;;3.07;;
2992;SDS011;1506;48.932;9.478;2022-08-03T00:41:56;2.73;;;2.63;;
2992;SDS011;1506;48.932;9.478;2022-08-03T00:44:23;3.10;;;2.90;;
2992;SDS011;1506;48.932;9.478;2022-08-03T00:46:50;2.80;;;2.60;;
2992;SDS011;1506;48.932;9.478;2022-08-03T00:49:17;2.90;;;2.70;;
2992;SDS011;1506;48.932;9.478;2022-08-03T00:51:44;2.70;;;2.60;;
2992;SDS011;1506;48.932;9.478;2022-08-03T00:54:13;2.63;;;2.53;;
2992;SDS011;1506;48.932;9.478;2022-08-03T00:56:42;2.57;;;2.47;;
2992;SDS011;1506;48.932;9.478;2022-08-03T00:59:25;2.90;;;2.70;;
2992;SDS011;1506;48.932;9.478;2022-08-03T01:01:53;5.10;;;3.07;;
2992;SDS011;1506;48.932;9.478;2022-08-03T01:04:20;3.20;;;3.10;;
2992;SDS011;1506;48.932;9.478;2022-08-03T01:12:38;3.33;;;3.13;;
2992;SDS011;1506;48.932;9.478;2022-08-03T01:18:19;2.90;;;2.80;;
2992;SDS011;1506;48.932;9.478;2022-08-03T01:21:00;6.63;;;3.27;;
2992;SDS011;1506;48.932;9.478;2022-08-03T01:30:06;3.47;;;3.23;;
2992;SDS011;1506;48.932;9.478;2022-08-03T01:32:49;4.07;;;3.77;;
2992;SDS011;1506;48.932;9.478;2022-08-03T01:35:34;3.00;;;2.80;;
2992;SDS011;1506;48.932;9.478;2022-08-03T01:38:10;3.53;;;3.33;;
2992;SDS011;1506;48.932;9.478;2022-08-03T01:40:43;4.40;;;2.77;;
2992;SDS011;1506;48.932;9.478;2022-08-03T01:43:14;3.83;;;3.63;;
2992;SDS011;1506;48.932;9.478;2022-08-03T01:46:03;3.23;;;3.03;;
2992;SDS011;1506;48.932;9.478;2022-08-03T01:48:32;3.00;;;2.90;;
2992;SDS011;1506;48.932;9.478;2022-08-03T01:51:02;3.00;;;2.90;;
2992;SDS011;1506;48.932;9.478;2022-08-03T01:53:30;3.83;;;3.63;;
2992;SDS011;1506;48.932;9.478;2022-08-03T01:56:00;3.23;;;3.03;;
2992;SDS011;1506;48.932;9.478;2022-08-03T01:58:29;3.77;;;3.47;;
2992;SDS011;1506;48.932;9.478;2022-08-03T02:01:00;3.60;;;3.40;;
2992;SDS011;1506;48.932;9.478;2022-08-03T02:03:29;3.63;;;3.40;;
2992;SDS011;1506;48.932;9.478;2022-08-03T02:05:59;2.50;;;2.40;;
2992;SDS011;1506;48.932;9.478;2022-08-03T02:08:48;5.97;;;3.30;;
2992;SDS011;1506;48.932;9.478;2022-08-03T02:11:17;3.10;;;2.93;;
2992;SDS011;1506;48.932;9.478;2022-08-03T02:13:45;3.63;;;3.43;;
2992;SDS011;1506;48.932;9.478;2022-08-03T02:16:15;3.40;;;3.23;;
2992;SDS011;1506;48.932;9.478;2022-08-03T02:18:43;3.53;;;3.30;;
2992;SDS011;1506;48.932;9.478;2022-08-03T02:21:13;3.33;;;3.17;;
2992;SDS011;1506;48.932;9.478;2022-08-03T02:24:01;3.83;;;3.50;;
2992;SDS011;1506;48.932;9.478;2022-08-03T02:26:30;3.47;;;3.27;;
2992;SDS011;1506;48.932;9.478;2022-08-03T02:29:03;2.70;;;2.50;;
2992;SDS011;1506;48.932;9.478;2022-08-03T02:31:40;2.80;;;2.70;;
2992;SDS011;1506;48.932;9.478;2022-08-03T02:34:11;3.80;;;3.60;;
2992;SDS011;1506;48.932;9.478;2022-08-03T02:36:40;3.77;;;3.57;;
2992;SDS011;1506;48.932;9.478;2022-08-03T02:39:12;3.30;;;3.20;;
2992;SDS011;1506;48.932;9.478;2022-08-03T02:41:53;4.87;;;3.60;;
2992;SDS011;1506;48.932;9.478;2022-08-03T02:44:29;3.13;;;2.83;;
2992;SDS011;1506;48.932;9.478;2022-08-03T02:47:04;3.47;;;3.20;;
2992;SDS011;1506;48.932;9.478;2022-08-03T02:49:35;4.20;;;4.00;;
2992;SDS011;1506;48.932;9.478;2022-08-03T02:52:16;3.03;;;2.93;;
2992;SDS011;1506;48.932;9.478;2022-08-03T02:54:46;3.40;;;3.27;;
2992;SDS011;1506;48.932;9.478;2022-08-03T02:57:18;3.90;;;3.70;;
2992;SDS011;1506;48.932;9.478;2022-08-03T02:59:47;3.57;;;3.37;;
2992;SDS011;1506;48.932;9.478;2022-08-03T03:02:17;5.03;;;3.23;;
2992;SDS011;1506;48.932;9.478;2022-08-03T03:04:45;3.00;;;2.90;;
2992;SDS011;1506;48.932;9.478;2022-08-03T03:07:35;3.07;;;2.90;;
2992;SDS011;1506;48.932;9.478;2022-08-03T03:10:21;4.47;;;4.17;;
2992;SDS011;1506;48.932;9.478;2022-08-03T03:12:49;3.77;;;3.23;;
2992;SDS011;1506;48.932;9.478;2022-08-03T03:15:21;3.63;;;3.43;;
2992;SDS011;1506;48.932;9.478;2022-08-03T03:17:50;4.07;;;3.87;;
2992;SDS011;1506;48.932;9.478;2022-08-03T03:20:19;2.73;;;2.57;;
2992;SDS011;1506;48.932;9.478;2022-08-03T03:22:57;2.93;;;2.83;;
2992;SDS011;1506;48.932;9.478;2022-08-03T03:25:26;3.10;;;3.00;;
2992;SDS011;1506;48.932;9.478;2022-08-03T03:27:58;13.60;;;3.00;;
2992;SDS011;1506;48.932;9.478;2022-08-03T03:30:27;3.60;;;3.33;;
2992;SDS011;1506;48.932;9.478;2022-08-03T03:32:56;2.77;;;2.67;;
2992;SDS011;1506;48.932;9.478;2022-08-03T03:35:24;4.37;;;4.07;;
2992;SDS011;1506;48.932;9.478;2022-08-03T03:37:53;3.93;;;3.80;;
2992;SDS011;1506;48.932;9.478;2022-08-03T03:40:20;3.60;;;3.40;;
2992;SDS011;1506;48.932;9.478;2022-08-03T03:42:48;4.00;;;3.80;;
2992;SDS011;1506;48.932;9.478;2022-08-03T03:45:16;3.80;;;3.60;;
2992;SDS011;1506;48.932;9.478;2022-08-03T03:47:45;4.17;;;3.97;;
2992;SDS011;1506;48.932;9.478;2022-08-03T03:50:12;3.83;;;3.53;;
2992;SDS011;1506;48.932;9.478;2022-08-03T03:52:44;4.47;;;4.17;;
2992;SDS011;1506;48.932;9.478;2022-08-03T03:55:14;3.50;;;3.33;;
2992;SDS011;1506;48.932;9.478;2022-08-03T03:57:43;3.80;;;3.60;;
2992;SDS011;1506;48.932;9.478;2022-08-03T04:00:12;3.40;;;3.20;;
2992;SDS011;1506;48.932;9.478;2022-08-03T04:02:40;3.40;;;3.30;;
2992;SDS011;1506;48.932;9.478;2022-08-03T04:05:07;4.03;;;3.83;;
2992;SDS011;1506;48.932;9.478;2022-08-03T04:07:58;3.30;;;3.10;;
2992;SDS011;1506;48.932;9.478;2022-08-03T04:10:47;3.50;;;3.33;;
2992;SDS011;1506;48.932;9.478;2022-08-03T04:13:31;5.30;;;4.90;;
2992;SDS011;1506;48.932;9.478;2022-08-03T04:16:03;4.07;;;3.77;;
2992;SDS011;1506;48.932;9.478;2022-08-03T04:18:33;3.53;;;3.43;;
2992;SDS011;1506;48.932;9.478;2022-08-03T04:21:03;4.03;;;3.83;;
2992;SDS011;1506;48.932;9.478;2022-08-03T04:23:36;4.47;;;4.17;;
2992;SDS011;1506;48.932;9.478;2022-08-03T04:26:08;8.50;;;4.43;;
2992;SDS011;1506;48.932;9.478;2022-08-03T04:28:40;4.10;;;3.90;;
2992;SDS011;1506;48.932;9.478;2022-08-03T04:31:11;4.23;;;4.03;;
2992;SDS011;1506;48.932;9.478;2022-08-03T04:33:40;4.00;;;3.70;;
2992;SDS011;1506;48.932;9.478;2022-08-03T04:36:11;3.27;;;3.17;;
2992;SDS011;1506;48.932;9.478;2022-08-03T04:38:52;4.90;;;4.53;;
2992;SDS011;1506;48.932;9.478;2022-08-03T04:41:32;5.47;;;5.07;;
2992;SDS011;1506;48.932;9.478;2022-08-03T04:44:22;4.80;;;4.50;;
2992;SDS011;1506;48.932;9.478;2022-08-03T04:46:54;4.50;;;4.20;;
2992;SDS011;1506;48.932;9.478;2022-08-03T04:49:23;11.53;;;5.50;;
2992;SDS011;1506;48.932;9.478;2022-08-03T04:51:50;3.73;;;3.53;;
2992;SDS011;1506;48.932;9.478;2022-08-03T04:54:18;4.70;;;4.40;;
2992;SDS011;1506;48.932;9.478;2022-08-03T04:56:45;6.10;;;3.77;;
2992;SDS011;1506;48.932;9.478;2022-08-03T04:59:13;4.57;;;4.27;;
2992;SDS011;1506;48.932;9.478;2022-08-03T05:01:40;3.90;;;3.70;;
2992;SDS011;1506;48.932;9.478;2022-08-03T05:04:07;3.20;;;3.00;;
2992;SDS011;1506;48.932;9.478;2022-08-03T05:06:35;4.43;;;4.23;;
2992;SDS011;1506;48.932;9.478;2022-08-03T05:09:13;3.97;;;3.57;;
2992;SDS011;1506;48.932;9.478;2022-08-03T05:12:00;3.93;;;3.83;;
2992;SDS011;1506;48.932;9.478;2022-08-03T05:14:27;3.70;;;3.50;;
2992;SDS011;1506;48.932;9.478;2022-08-03T05:16:54;4.00;;;3.67;;
2992;SDS011;1506;48.932;9.478;2022-08-03T05:19:21;4.63;;;4.30;;
2992;SDS011;1506;48.932;9.478;2022-08-03T05:21:48;4.40;;;3.63;;
2992;SDS011;1506;48.932;9.478;2022-08-03T05:24:17;3.93;;;3.73;;
2992;SDS011;1506;48.932;9.478;2022-08-03T05:26:45;4.90;;;3.53;;
2992;SDS011;1506;48.932;9.478;2022-08-03T05:29:14;3.17;;;3.07;;
2992;SDS011;1506;48.932;9.478;2022-08-03T05:31:41;3.07;;;2.97;;
2992;SDS011;1506;48.932;9.478;2022-08-03T05:34:08;4.90;;;3.30;;
2992;SDS011;1506;48.932;9.478;2022-08-03T05:36:35;7.30;;;3.10;;
2992;SDS011;1506;48.932;9.478;2022-08-03T05:39:03;3.60;;;3.40;;
2992;SDS011;1506;48.932;9.478;2022-08-03T05:41:30;3.07;;;2.97;;
2992;SDS011;1506;48.932;9.478;2022-08-03T05:44:02;3.23;;;3.03;;
2992;SDS011;1506;48.932;9.478;2022-08-03T05:46:30;3.27;;;3.17;;
2992;SDS011;1506;48.932;9.478;2022-08-03T05:48:57;3.50;;;3.30;;
2992;SDS011;1506;48.932;9.478;2022-08-03T05:51:24;3.30;;;3.20;;
2992;SDS011;1506;48.932;9.478;2022-08-03T05:53:51;3.13;;;3.03;;
2992;SDS011;1506;48.932;9.478;2022-08-03T05:56:24;3.57;;;3.20;;
2992;SDS011;1506;48.932;9.478;2022-08-03T05:58:51;3.10;;;2.90;;
2992;SDS011;1506;48.932;9.478;2022-08-03T06:01:19;3.30;;;3.20;;
2992;SDS011;1506;48.932;9.478;2022-08-03T06:03:47;3.27;;;3.17;;
2992;SDS011;1506;48.932;9.478;2022-08-03T06:06:15;3.37;;;3.17;;
2992;SDS011;1506;48.932;9.478;2022-08-03T06:08:43;4.37;;;3.40;;
2992;SDS011;1506;48.932;9.478;2022-08-03T06:11:11;2.10;;;2.00;;
2992;SDS011;1506;48.932;9.478;2022-08-03T06:13:38;3.10;;;3.00;;
2992;SDS011;1506;48.932;9.478;2022-08-03T06:16:05;2.90;;;2.80;;
2992;SDS011;1506;48.932;9.478;2022-08-03T06:18:32;3.10;;;2.90;;
2992;SDS011;1506;48.932;9.478;2022-08-03T06:21:00;2.80;;;2.70;;
2992;SDS011;1506;48.932;9.478;2022-08-03T06:23:41;2.90;;;2.80;;
2992;SDS011;1506;48.932;9.478;2022-08-03T06:26:21;2.60;;;2.50;;
2992;SDS011;1506;48.932;9.478;2022-08-03T06:28:50;3.10;;;2.90;;
2992;SDS011;1506;48.932;9.478;2022-08-03T06:31:22;3.17;;;2.67;;
2992;SDS011;1506;48.932;9.478;2022-08-03T06:33:59;2.87;;;2.77;;
2992;SDS011;1506;48.932;9.478;2022-08-03T06:36:48;3.23;;;3.00;;
2992;SDS011;1506;48.932;9.478;2022-08-03T06:39:18;2.97;;;2.87;;
2992;SDS011;1506;48.932;9.478;2022-08-03T06:41:45;2.80;;;2.70;;
2992;SDS011;1506;48.932;9.478;2022-08-03T06:44:12;2.83;;;2.67;;
2992;SDS011;1506;48.932;9.478;2022-08-03T06:46:39;2.53;;;2.43;;
2992;SDS011;1506;48.932;9.478;2022-08-03T06:49:07;2.90;;;2.70;;
2992;SDS011;1506;48.932;9.478;2022-08-03T06:51:34;4.90;;;2.20;;
2992;SDS011;1506;48.932;9.478;2022-08-03T06:54:21;2.30;;;2.20;;
2992;SDS011;1506;48.932;9.478;2022-08-03T06:56:49;2.20;;;2.10;;
2992;SDS011;1506;48.932;9.478;2022-08-03T06:59:17;2.50;;;2.40;;
2992;SDS011;1506;48.932;9.478;2022-08-03T07:02:04;3.00;;;2.90;;
2992;SDS011;1506;48.932;9.478;2022-08-03T07:04:31;5.03;;;4.63;;
2992;SDS011;1506;48.932;9.478;2022-08-03T07:06:58;2.40;;;2.20;;
2992;SDS011;1506;48.932;9.478;2022-08-03T07:09:25;2.43;;;2.33;;
2992;SDS011;1506;48.932;9.478;2022-08-03T07:11:53;3.03;;;2.40;;
2992;SDS011;1506;48.932;9.478;2022-08-03T07:14:20;1.80;;;1.70;;
2992;SDS011;1506;48.932;9.478;2022-08-03T07:16:48;2.10;;;2.00;;
2992;SDS011;1506;48.932;9.478;2022-08-03T07:19:15;2.00;;;1.90;;
2992;SDS011;1506;48.932;9.478;2022-08-03T07:21:42;2.00;;;1.90;;
2992;SDS011;1506;48.932;9.478;2022-08-03T07:24:10;1.87;;;1.77;;
2992;SDS011;1506;48.932;9.478;2022-08-03T07:26:37;2.20;;;2.10;;
2992;SDS011;1506;48.932;9.478;2022-08-03T07:29:04;3.20;;;2.33;;
2992;SDS011;1506;48.932;9.478;2022-08-03T07:31:40;2.70;;;2.50;;
2992;SDS011;1506;48.932;9.478;2022-08-03T07:34:08;4.20;;;2.60;;
2992;SDS011;1506;48.932;9.478;2022-08-03T07:36:35;2.23;;;2.07;;
2992;SDS011;1506;48.932;9.478;2022-08-03T07:39:02;2.20;;;2.10;;
2992;SDS011;1506;48.932;9.478;2022-08-03T07:41:43;1.77;;;1.67;;
2992;SDS011;1506;48.932;9.478;2022-08-03T07:44:11;1.47;;;1.37;;
2992;SDS011;1506;48.932;9.478;2022-08-03T07:46:38;2.50;;;2.40;;
2992;SDS011;1506;48.932;9.478;2022-08-03T07:49:05;2.20;;;2.10;;
2992;SDS011;1506;48.932;9.478;2022-08-03T07:51:33;1.80;;;1.70;;
2992;SDS011;1506;48.932;9.478;2022-08-03T07:54:00;1.83;;;1.73;;
2992;SDS011;1506;48.932;9.478;2022-08-03T07:56:27;1.73;;;1.63;;
2992;SDS011;1506;48.932;9.478;2022-08-03T07:58:55;2.63;;;2.50;;
2992;SDS011;1506;48.932;9.478;2022-08-03T08:01:22;1.90;;;1.80;;
2992;SDS011;1506;48.932;9.478;2022-08-03T08:03:50;2.17;;;1.97;;
2992;SDS011;1506;48.932;9.478;2022-08-03T08:06:19;1.40;;;1.30;;
2992;SDS011;1506;48.932;9.478;2022-08-03T08:08:47;1.80;;;1.57;;
2992;SDS011;1506;48.932;9.478;2022-08-03T08:11:14;1.50;;;1.40;;
2992;SDS011;1506;48.932;9.478;2022-08-03T08:13:41;2.00;;;1.90;;
2992;SDS011;1506;48.932;9.478;2022-08-03T08:16:08;2.00;;;1.90;;
2992;SDS011;1506;48.932;9.478;2022-08-03T08:18:35;1.53;;;1.43;;
2992;SDS011;1506;48.932;9.478;2022-08-03T08:21:02;1.80;;;1.70;;
2992;SDS011;1506;48.932;9.478;2022-08-03T08:23:29;2.17;;;1.97;;
2992;SDS011;1506;48.932;9.478;2022-08-03T08:26:08;1.20;;;1.20;;
2992;SDS011;1506;48.932;9.478;2022-08-03T08:28:35;1.00;;;1.00;;
2992;SDS011;1506;48.932;9.478;2022-08-03T08:31:03;2.20;;;1.33;;
2992;SDS011;1506;48.932;9.478;2022-08-03T08:33:30;1.20;;;1.20;;
2992;SDS011;1506;48.932;9.478;2022-08-03T08:36:19;1.57;;;1.47;;
2992;SDS011;1506;48.932;9.478;2022-08-03T08:38:46;1.10;;;1.10;;
2992;SDS011;1506;48.932;9.478;2022-08-03T08:41:14;1.70;;;1.40;;
2992;SDS011;1506;48.932;9.478;2022-08-03T08:43:42;1.57;;;1.47;;
2992;SDS011;1506;48.932;9.478;2022-08-03T08:46:10;1.27;;;1.17;;
2992;SDS011;1506;48.932;9.478;2022-08-03T08:48:50;1.40;;;1.30;;
2992;SDS011;1506;48.932;9.478;2022-08-03T08:51:19;1.63;;;1.53;;
2992;SDS011;1506;48.932;9.478;2022-08-03T08:53:51;1.47;;;1.20;;
2992;SDS011;1506;48.932;9.478;2022-08-03T08:56:19;3.60;;;1.30;;
2992;SDS011;1506;48.932;9.478;2022-08-03T08:58:51;2.00;;;1.80;;
2992;SDS011;1506;48.932;9.478;2022-08-03T09:01:24;1.20;;;1.10;;
2992;SDS011;1506;48.932;9.478;2022-08-03T09:03:53;1.67;;;1.57;;
2992;SDS011;1506;48.932;9.478;2022-08-03T09:06:21;1.30;;;1.23;;
2992;SDS011;1506;48.932;9.478;2022-08-03T09:08:49;1.30;;;1.20;;
2992;SDS011;1506;48.932;9.478;2022-08-03T09:11:19;1.40;;;1.40;;
2992;SDS011;1506;48.932;9.478;2022-08-03T09:14:08;1.17;;;1.17;;
2992;SDS011;1506;48.932;9.478;2022-08-03T09:16:56;2.47;;;1.23;;
2992;SDS011;1506;48.932;9.478;2022-08-03T09:19:26;1.50;;;1.40;;
2992;SDS011;1506;48.932;9.478;2022-08-03T09:22:14;1.73;;;1.40;;
2992;SDS011;1506;48.932;9.478;2022-08-03T09:24:56;1.33;;;1.23;;
2992;SDS011;1506;48.932;9.478;2022-08-03T09:27:45;1.20;;;1.20;;
2992;SDS011;1506;48.932;9.478;2022-08-03T09:30:13;1.17;;;1.17;;
2992;SDS011;1506;48.932;9.478;2022-08-03T09:33:02;1.27;;;1.17;;
2992;SDS011;1506;48.932;9.478;2022-08-03T09:35:44;1.77;;;1.67;;
2992;SDS011;1506;48.932;9.478;2022-08-03T09:38:23;1.57;;;1.47;;
2992;SDS011;1506;48.932;9.478;2022-08-03T09:40:54;2.40;;;1.83;;
2992;SDS011;1506;48.932;9.478;2022-08-03T09:43:26;4.10;;;1.73;;
2992;SDS011;1506;48.932;9.478;2022-08-03T09:46:03;2.03;;;1.93;;
2992;SDS011;1506;48.932;9.478;2022-08-03T09:48:33;0.90;;;0.90;;
2992;SDS011;1506;48.932;9.478;2022-08-03T09:51:02;1.20;;;1.10;;
2992;SDS011;1506;48.932;9.478;2022-08-03T09:53:50;1.67;;;1.57;;
2992;SDS011;1506;48.932;9.478;2022-08-03T09:56:41;3.73;;;1.33;;
2992;SDS011;1506;48.932;9.478;2022-08-03T09:59:13;1.30;;;1.20;;
2992;SDS011;1506;48.932;9.478;2022-08-03T10:01:51;1.57;;;1.40;;
2992;SDS011;1506;48.932;9.478;2022-08-03T10:04:19;2.90;;;1.50;;
2992;SDS011;1506;48.932;9.478;2022-08-03T10:07:01;1.30;;;1.20;;
2992;SDS011;1506;48.932;9.478;2022-08-03T10:09:35;1.80;;;1.70;;
2992;SDS011;1506;48.932;9.478;2022-08-03T10:12:09;1.67;;;1.57;;
2992;SDS011;1506;48.932;9.478;2022-08-03T10:14:40;1.30;;;1.30;;
2992;SDS011;1506;48.932;9.478;2022-08-03T10:17:09;1.40;;;1.30;;
2992;SDS011;1506;48.932;9.478;2022-08-03T10:19:36;1.40;;;1.30;;
2992;SDS011;1506;48.932;9.478;2022-08-03T10:22:09;1.80;;;1.70;;
2992;SDS011;1506;48.932;9.478;2022-08-03T10:24:43;2.00;;;1.90;;
2992;SDS011;1506;48.932;9.478;2022-08-03T10:27:19;1.60;;;1.50;;
2992;SDS011;1506;48.932;9.478;2022-08-03T10:29:51;1.80;;;1.70;;
2992;SDS011;1506;48.932;9.478;2022-08-03T10:34:58;1.43;;;1.33;;
2992;SDS011;1506;48.932;9.478;2022-08-03T10:37:57;1.30;;;1.30;;
2992;SDS011;1506;48.932;9.478;2022-08-03T10:40:28;2.23;;;1.73;;
2992;SDS011;1506;48.932;9.478;2022-08-03T10:43:18;1.57;;;1.47;;
2992;SDS011;1506;48.932;9.478;2022-08-03T10:46:02;1.70;;;1.60;;
2992;SDS011;1506;48.932;9.478;2022-08-03T10:48:32;1.40;;;1.40;;
2992;SDS011;1506;48.932;9.478;2022-08-03T10:51:01;1.30;;;1.20;;
2992;SDS011;1506;48.932;9.478;2022-08-03T10:53:38;1.30;;;1.30;;
2992;SDS011;1506;48.932;9.478;2022-08-03T10:59:17;1.40;;;1.30;;
2992;SDS011;1506;48.932;9.478;2022-08-03T11:02:03;1.80;;;1.10;;
2992;SDS011;1506;48.932;9.478;2022-08-03T11:04:33;1.20;;;1.20;;
2992;SDS011;1506;48.932;9.478;2022-08-03T11:09:44;1.23;;;1.13;;
2992;SDS011;1506;48.932;9.478;2022-08-03T11:14:58;1.60;;;1.50;;
2992;SDS011;1506;48.932;9.478;2022-08-03T11:17:27;1.63;;;1.40;;
2992;SDS011;1506;48.932;9.478;2022-08-03T11:19:54;1.00;;;1.00;;
2992;SDS011;1506;48.932;9.478;2022-08-03T11:22:24;0.90;;;0.90;;
2992;SDS011;1506;48.932;9.478;2022-08-03T11:27:29;1.67;;;1.57;;
2992;SDS011;1506;48.932;9.478;2022-08-03T11:29:59;1.30;;;1.30;;
2992;SDS011;1506;48.932;9.478;2022-08-03T11:35:10;1.70;;;1.60;;
2992;SDS011;1506;48.932;9.478;2022-08-03T11:48:41;1.27;;;1.20;;
2992;SDS011;1506;48.932;9.478;2022-08-03T11:53:52;1.40;;;1.30;;
2992;SDS011;1506;48.932;9.478;2022-08-03T11:56:20;1.13;;;1.13;;
2992;SDS011;1506;48.932;9.478;2022-08-03T11:58:48;1.50;;;1.40;;
2992;SDS011;1506;48.932;9.478;2022-08-03T12:01:38;2.03;;;1.80;;
2992;SDS011;1506;48.932;9.478;2022-08-03T12:04:07;1.30;;;1.30;;
2992;SDS011;1506;48.932;9.478;2022-08-03T12:06:35;3.40;;;1.80;;
2992;SDS011;1506;48.932;9.478;2022-08-03T12:09:21;1.40;;;1.30;;
2992;SDS011;1506;48.932;9.478;2022-08-03T12:11:48;1.40;;;1.30;;
2992;SDS011;1506;48.932;9.478;2022-08-03T12:14:26;1.60;;;1.50;;
2992;SDS011;1506;48.932;9.478;2022-08-03T12:17:15;1.30;;;1.20;;
2992;SDS011;1506;48.932;9.478;2022-08-03T12:19:43;3.33;;;1.47;;
2992;SDS011;1506;48.932;9.478;2022-08-03T12:22:11;1.30;;;1.20;;
2992;SDS011;1506;48.932;9.478;2022-08-03T12:24:42;1.37;;;1.27;;
2992;SDS011;1506;48.932;9.478;2022-08-03T12:27:13;1.27;;;1.20;;
2992;SDS011;1506;48.932;9.478;2022-08-03T12:29:55;1.67;;;1.57;;
2992;SDS011;1506;48.932;9.478;2022-08-03T12:32:25;1.40;;;1.30;;
2992;SDS011;1506;48.932;9.478;2022-08-03T12:34:54;1.40;;;1.30;;
2992;SDS011;1506;48.932;9.478;2022-08-03T12:37:26;1.67;;;1.57;;
2992;SDS011;1506;48.932;9.478;2022-08-03T12:39:58;1.40;;;1.30;;
2992;SDS011;1506;48.932;9.478;2022-08-03T12:42:36;1.23;;;1.23;;
2992;SDS011;1506;48.932;9.478;2022-08-03T12:45:18;1.30;;;1.20;;
2992;SDS011;1506;48.932;9.478;2022-08-03T12:47:56;1.20;;;1.10;;
2992;SDS011;1506;48.932;9.478;2022-08-03T12:50:29;1.30;;;1.30;;
2992;SDS011;1506;48.932;9.478;2022-08-03T12:52:59;1.20;;;1.20;;
2992;SDS011;1506;48.932;9.478;2022-08-03T12:55:27;3.17;;;1.10;;
2992;SDS011;1506;48.932;9.478;2022-08-03T12:58:28;1.33;;;1.23;;
2992;SDS011;1506;48.932;9.478;2022-08-03T13:00:59;1.50;;;1.50;;
2992;SDS011;1506;48.932;9.478;2022-08-03T13:03:39;1.80;;;1.70;;
2992;SDS011;1506;48.932;9.478;2022-08-03T13:06:26;1.47;;;1.40;;
2992;SDS011;1506;48.932;9.478;2022-08-03T13:09:03;1.13;;;1.13;;
2992;SDS011;1506;48.932;9.478;2022-08-03T13:11:32;2.03;;;1.93;;
2992;SDS011;1506;48.932;9.478;2022-08-03T13:14:20;1.20;;;1.20;;
2992;SDS011;1506;48.932;9.478;2022-08-03T13:16:49;1.13;;;1.13;;
2992;SDS011;1506;48.932;9.478;2022-08-03T13:19:16;4.37;;;1.37;;
2992;SDS011;1506;48.932;9.478;2022-08-03T13:21:43;4.13;;;1.73;;
2992;SDS011;1506;48.932;9.478;2022-08-03T13:24:29;1.87;;;1.50;;
2992;SDS011;1506;48.932;9.478;2022-08-03T13:26:58;1.40;;;1.30;;
2992;SDS011;1506;48.932;9.478;2022-08-03T13:29:46;1.43;;;1.33;;
2992;SDS011;1506;48.932;9.478;2022-08-03T13:32:13;1.83;;;1.73;;
2992;SDS011;1506;48.932;9.478;2022-08-03T13:34:40;1.57;;;1.47;;
2992;SDS011;1506;48.932;9.478;2022-08-03T13:37:07;1.50;;;1.40;;
2992;SDS011;1506;48.932;9.478;2022-08-03T13:39:45;1.43;;;1.33;;
2992;SDS011;1506;48.932;9.478;2022-08-03T13:42:29;1.40;;;1.30;;
2992;SDS011;1506;48.932;9.478;2022-08-03T13:44:58;1.40;;;1.30;;
2992;SDS011;1506;48.932;9.478;2022-08-03T13:47:26;1.20;;;1.17;;
2992;SDS011;1506;48.932;9.478;2022-08-03T13:49:54;1.20;;;1.20;;
2992;SDS011;1506;48.932;9.478;2022-08-03T13:52:34;1.60;;;1.50;;
2992;SDS011;1506;48.932;9.478;2022-08-03T13:55:02;1.40;;;1.40;;
2992;SDS011;1506;48.932;9.478;2022-08-03T13:57:31;1.20;;;1.20;;
2992;SDS011;1506;48.932;9.478;2022-08-03T14:00:20;1.43;;;1.43;;
2992;SDS011;1506;48.932;9.478;2022-08-03T14:02:58;1.50;;;1.40;;
2992;SDS011;1506;48.932;9.478;2022-08-03T14:05:38;2.27;;;2.17;;
2992;SDS011;1506;48.932;9.478;2022-08-03T14:08:06;2.63;;;2.53;;
2992;SDS011;1506;48.932;9.478;2022-08-03T14:10:38;1.60;;;1.50;;
2992;SDS011;1506;48.932;9.478;2022-08-03T14:13:08;1.80;;;1.50;;
2992;SDS011;1506;48.932;9.478;2022-08-03T14:15:37;2.60;;;1.47;;
2992;SDS011;1506;48.932;9.478;2022-08-03T14:18:08;1.30;;;1.20;;
2992;SDS011;1506;48.932;9.478;2022-08-03T14:20:41;1.57;;;1.50;;
2992;SDS011;1506;48.932;9.478;2022-08-03T14:23:16;1.67;;;1.57;;
2992;SDS011;1506;48.932;9.478;2022-08-03T14:25:44;3.00;;;1.57;;
2992;SDS011;1506;48.932;9.478;2022-08-03T14:28:18;3.77;;;1.63;;
2992;SDS011;1506;48.932;9.478;2022-08-03T14:30:46;4.70;;;1.77;;
2992;SDS011;1506;48.932;9.478;2022-08-03T14:33:14;1.60;;;1.50;;
2992;SDS011;1506;48.932;9.478;2022-08-03T14:35:41;1.40;;;1.40;;
2992;SDS011;1506;48.932;9.478;2022-08-03T14:38:09;1.87;;;1.77;;
2992;SDS011;1506;48.932;9.478;2022-08-03T14:40:36;2.23;;;1.80;;
2992;SDS011;1506;48.932;9.478;2022-08-03T14:43:04;3.20;;;1.40;;
2992;SDS011;1506;48.932;9.478;2022-08-03T14:45:31;1.70;;;1.60;;
2992;SDS011;1506;48.932;9.478;2022-08-03T14:47:59;1.80;;;1.70;;
2992;SDS011;1506;48.932;9.478;2022-08-03T14:50:47;1.60;;;1.50;;
2992;SDS011;1506;48.932;9.478;2022-08-03T14:53:17;2.50;;;1.37;;
2992;SDS011;1506;48.932;9.478;2022-08-03T14:55:45;1.97;;;1.50;;
2992;SDS011;1506;48.932;9.478;2022-08-03T14:58:17;1.30;;;1.20;;
2992;SDS011;1506;48.932;9.478;2022-08-03T15:00:46;2.17;;;2.07;;
2992;SDS011;1506;48.932;9.478;2022-08-03T15:03:15;1.73;;;1.63;;
2992;SDS011;1506;48.932;9.478;2022-08-03T15:05:45;3.33;;;1.57;;
2992;SDS011;1506;48.932;9.478;2022-08-03T15:08:13;1.20;;;1.20;;
2992;SDS011;1506;48.932;9.478;2022-08-03T15:10:41;1.50;;;1.40;;
2992;SDS011;1506;48.932;9.478;2022-08-03T15:13:11;1.47;;;1.40;;
2992;SDS011;1506;48.932;9.478;2022-08-03T15:15:38;6.30;;;1.77;;
2992;SDS011;1506;48.932;9.478;2022-08-03T15:18:06;1.43;;;1.33;;
2992;SDS011;1506;48.932;9.478;2022-08-03T15:20:34;1.60;;;1.50;;
2992;SDS011;1506;48.932;9.478;2022-08-03T15:23:11;1.73;;;1.63;;
2992;SDS011;1506;48.932;9.478;2022-08-03T15:25:39;1.50;;;1.40;;
2992;SDS011;1506;48.932;9.478;2022-08-03T15:28:28;1.60;;;1.50;;
2992;SDS011;1506;48.932;9.478;2022-08-03T15:30:55;1.53;;;1.43;;
2992;SDS011;1506;48.932;9.478;2022-08-03T15:33:23;1.90;;;1.80;;
2992;SDS011;1506;48.932;9.478;2022-08-03T15:35:50;1.77;;;1.63;;
2992;SDS011;1506;48.932;9.478;2022-08-03T15:38:19;1.27;;;1.20;;
2992;SDS011;1506;48.932;9.478;2022-08-03T15:40:52;3.07;;;1.30;;
2992;SDS011;1506;48.932;9.478;2022-08-03T15:43:20;1.50;;;1.40;;
2992;SDS011;1506;48.932;9.478;2022-08-03T15:45:49;1.70;;;1.60;;
2992;SDS011;1506;48.932;9.478;2022-08-03T15:48:36;1.63;;;1.53;;
2992;SDS011;1506;48.932;9.478;2022-08-03T15:51:04;2.33;;;2.20;;
2992;SDS011;1506;48.932;9.478;2022-08-03T15:53:32;1.90;;;1.80;;
2992;SDS011;1506;48.932;9.478;2022-08-03T15:56:00;1.50;;;1.40;;
2992;SDS011;1506;48.932;9.478;2022-08-03T15:58:37;1.47;;;1.37;;
2992;SDS011;1506;48.932;9.478;2022-08-03T16:01:25;1.80;;;1.70;;
2992;SDS011;1506;48.932;9.478;2022-08-03T16:03:52;1.53;;;1.27;;
2992;SDS011;1506;48.932;9.478;2022-08-03T16:06:20;1.37;;;1.27;;
2992;SDS011;1506;48.932;9.478;2022-08-03T16:09:02;1.70;;;1.60;;
2992;SDS011;1506;48.932;9.478;2022-08-03T16:11:49;1.50;;;1.40;;
2992;SDS011;1506;48.932;9.478;2022-08-03T16:14:17;1.67;;;1.57;;
2992;SDS011;1506;48.932;9.478;2022-08-03T16:16:58;1.17;;;1.07;;
2992;SDS011;1506;48.932;9.478;2022-08-03T16:19:26;1.57;;;1.47;;
2992;SDS011;1506;48.932;9.478;2022-08-03T16:21:54;1.40;;;1.40;;
2992;SDS011;1506;48.932;9.478;2022-08-03T16:24:23;1.40;;;1.30;;
2992;SDS011;1506;48.932;9.478;2022-08-03T16:26:53;1.53;;;1.43;;
2992;SDS011;1506;48.932;9.478;2022-08-03T16:29:21;1.50;;;1.40;;
2992;SDS011;1506;48.932;9.478;2022-08-03T16:31:49;1.17;;;1.17;;